Aughwick, Pennsylvania
Current Conditions -  °F | °C
As of 2:53 AM on Wednesday 22 Oct 2014 (Local Time) from KAOO Reporting Station
Overcast Overcast  
Wind Chill:   Ceiling: 1800
Heat Index:   Visibility: 10mi
Dew Point:   Wind: 5mph
Humidity: 97%   Direction: NA
Pressure: 29.95"   Gusts: NA
Location:  40.4281°N, 77.8329°W
Report Text: KAOO 220653Z AUTO VRB04KT 10SM OVC018 09/09 A2995 RMK AO2 RAB18E30 SLP145 P0000 T00940089
Loading
Personal Weather Stations






























Interactive Weather Map
Tropical Storm Tracking
New forecast layout! Learn more

10-Day Weather Forecast

Advertisements
Track Severe Weather on mobile